sensor_id;sensor_type;location;lat;lon;timestamp;pressure;altitude;pressure_sealevel;temperature;humidity
45763;BME280;37512;52.408;13.356;2023-12-28T00:03:59;100549.53;;;8.14;63.58
45763;BME280;37512;52.408;13.356;2023-12-28T00:08:00;100550.53;;;8.13;63.69
45763;BME280;37512;52.408;13.356;2023-12-28T00:12:03;100537.13;;;7.64;65.03
45763;BME280;37512;52.408;13.356;2023-12-28T00:16:05;100509.16;;;7.84;64.65
45763;BME280;37512;52.408;13.356;2023-12-28T00:20:07;100513.16;;;8.13;63.35
45763;BME280;37512;52.408;13.356;2023-12-28T00:24:09;100507.50;;;7.92;64.25
45763;BME280;37512;52.408;13.356;2023-12-28T00:28:11;100502.00;;;8.01;64.06
45763;BME280;37512;52.408;13.356;2023-12-28T00:32:13;100515.47;;;7.67;64.79
45763;BME280;37512;52.408;13.356;2023-12-28T00:36:16;100499.38;;;8.34;62.97
45763;BME280;37512;52.408;13.356;2023-12-28T00:40:18;100488.47;;;7.70;64.92
45763;BME280;37512;52.408;13.356;2023-12-28T00:44:19;100486.13;;;7.75;64.27
45763;BME280;37512;52.408;13.356;2023-12-28T00:48:21;100495.84;;;8.17;63.55
45763;BME280;37512;52.408;13.356;2023-12-28T00:52:23;100502.31;;;7.90;64.10
45763;BME280;37512;52.408;13.356;2023-12-28T00:56:24;100485.63;;;7.72;64.43
45763;BME280;37512;52.408;13.356;2023-12-28T01:00:26;100485.66;;;7.96;63.81
45763;BME280;37512;52.408;13.356;2023-12-28T01:04:27;100483.13;;;7.70;64.47
45763;BME280;37512;52.408;13.356;2023-12-28T01:08:29;100496.50;;;8.19;62.32
45763;BME280;37512;52.408;13.356;2023-12-28T01:12:31;100502.19;;;8.00;63.53
45763;BME280;37512;52.408;13.356;2023-12-28T01:16:32;100486.03;;;8.34;61.59
45763;BME280;37512;52.408;13.356;2023-12-28T01:20:34;100495.34;;;8.46;61.39
45763;BME280;37512;52.408;13.356;2023-12-28T01:24:36;100497.84;;;8.39;61.35
45763;BME280;37512;52.408;13.356;2023-12-28T01:28:39;100505.28;;;8.76;59.65
45763;BME280;37512;52.408;13.356;2023-12-28T01:32:40;100493.50;;;8.46;61.00
45763;BME280;37512;52.408;13.356;2023-12-28T01:36:42;100493.16;;;8.33;61.09
45763;BME280;37512;52.408;13.356;2023-12-28T01:40:47;100504.38;;;8.37;60.91
45763;BME280;37512;52.408;13.356;2023-12-28T01:44:48;100492.50;;;8.56;59.99
45763;BME280;37512;52.408;13.356;2023-12-28T01:48:50;100470.47;;;8.54;59.46
45763;BME280;37512;52.408;13.356;2023-12-28T01:52:52;100460.47;;;8.39;60.58
45763;BME280;37512;52.408;13.356;2023-12-28T01:56:55;100442.72;;;8.71;59.36
45763;BME280;37512;52.408;13.356;2023-12-28T02:00:57;100458.25;;;8.59;58.96
45763;BME280;37512;52.408;13.356;2023-12-28T02:04:59;100442.06;;;8.69;58.32
45763;BME280;37512;52.408;13.356;2023-12-28T02:09:00;100429.06;;;8.58;58.63
45763;BME280;37512;52.408;13.356;2023-12-28T02:13:02;100412.41;;;9.18;56.61
45763;BME280;37512;52.408;13.356;2023-12-28T02:17:11;100460.19;;;8.90;56.98
45763;BME280;37512;52.408;13.356;2023-12-28T02:21:15;100470.75;;;8.75;56.61
45763;BME280;37512;52.408;13.356;2023-12-28T02:25:17;100467.19;;;8.83;56.49
45763;BME280;37512;52.408;13.356;2023-12-28T02:29:19;100468.53;;;9.26;55.04
45763;BME280;37512;52.408;13.356;2023-12-28T02:33:34;100472.63;;;9.05;54.57
45763;BME280;37512;52.408;13.356;2023-12-28T02:37:39;100483.56;;;9.27;53.58
45763;BME280;37512;52.408;13.356;2023-12-28T02:41:43;100473.81;;;9.34;53.72
45763;BME280;37512;52.408;13.356;2023-12-28T02:45:45;100465.88;;;9.49;53.27
45763;BME280;37512;52.408;13.356;2023-12-28T02:49:46;100470.88;;;9.52;52.50
45763;BME280;37512;52.408;13.356;2023-12-28T02:53:48;100479.78;;;9.44;52.64
45763;BME280;37512;52.408;13.356;2023-12-28T02:57:51;100477.56;;;9.56;51.92
45763;BME280;37512;52.408;13.356;2023-12-28T03:01:53;100455.19;;;9.72;51.61
45763;BME280;37512;52.408;13.356;2023-12-28T03:05:55;100449.09;;;10.23;50.54
45763;BME280;37512;52.408;13.356;2023-12-28T03:09:56;100459.28;;;10.05;50.20
45763;BME280;37512;52.408;13.356;2023-12-28T03:13:58;100467.09;;;9.92;50.58
45763;BME280;37512;52.408;13.356;2023-12-28T03:18:00;100461.50;;;10.39;49.74
45763;BME280;37512;52.408;13.356;2023-12-28T03:22:03;100452.41;;;10.48;49.11
45763;BME280;37512;52.408;13.356;2023-12-28T03:26:05;100452.59;;;10.62;48.19
45763;BME280;37512;52.408;13.356;2023-12-28T03:30:07;100460.13;;;10.29;49.03
45763;BME280;37512;52.408;13.356;2023-12-28T03:34:09;100439.38;;;10.60;48.31
45763;BME280;37512;52.408;13.356;2023-12-28T03:38:11;100467.16;;;10.30;49.36
45763;BME280;37512;52.408;13.356;2023-12-28T03:42:13;100475.63;;;10.33;50.24
45763;BME280;37512;52.408;13.356;2023-12-28T03:46:15;100463.41;;;10.68;50.28
45763;BME280;37512;52.408;13.356;2023-12-28T03:50:17;100479.22;;;10.03;51.42
45763;BME280;37512;52.408;13.356;2023-12-28T03:54:19;100487.94;;;10.57;51.79
45763;BME280;37512;52.408;13.356;2023-12-28T03:58:21;100488.88;;;10.49;52.92
45763;BME280;37512;52.408;13.356;2023-12-28T04:02:22;100485.09;;;10.58;51.19
45763;BME280;37512;52.408;13.356;2023-12-28T04:06:25;100476.75;;;10.24;52.33
45763;BME280;37512;52.408;13.356;2023-12-28T04:10:31;100476.47;;;10.34;51.89
45763;BME280;37512;52.408;13.356;2023-12-28T04:14:34;100474.22;;;10.22;51.61
45763;BME280;37512;52.408;13.356;2023-12-28T04:18:36;100481.97;;;10.84;50.38
45763;BME280;37512;52.408;13.356;2023-12-28T04:22:38;100478.06;;;10.20;50.97
45763;BME280;37512;52.408;13.356;2023-12-28T04:26:40;100481.25;;;10.61;50.03
45763;BME280;37512;52.408;13.356;2023-12-28T04:30:43;100495.69;;;10.14;50.67
45763;BME280;37512;52.408;13.356;2023-12-28T04:34:45;100490.63;;;10.42;49.66
45763;BME280;37512;52.408;13.356;2023-12-28T04:38:48;100484.84;;;10.68;49.22
45763;BME280;37512;52.408;13.356;2023-12-28T04:42:50;100494.16;;;11.02;48.58
45763;BME280;37512;52.408;13.356;2023-12-28T04:46:52;100486.50;;;10.84;48.95
45763;BME280;37512;52.408;13.356;2023-12-28T04:50:54;100492.31;;;10.73;48.90
45763;BME280;37512;52.408;13.356;2023-12-28T04:54:55;100503.41;;;10.84;49.52
45763;BME280;37512;52.408;13.356;2023-12-28T04:58:57;100502.66;;;11.05;48.79
45763;BME280;37512;52.408;13.356;2023-12-28T05:02:59;100506.69;;;10.57;49.81
45763;BME280;37512;52.408;13.356;2023-12-28T05:07:01;100512.19;;;11.08;48.66
45763;BME280;37512;52.408;13.356;2023-12-28T05:11:03;100520.56;;;11.49;48.51
45763;BME280;37512;52.408;13.356;2023-12-28T05:15:07;100534.13;;;10.97;49.33
45763;BME280;37512;52.408;13.356;2023-12-28T05:19:08;100519.28;;;10.71;49.78
45763;BME280;37512;52.408;13.356;2023-12-28T05:23:11;100537.81;;;10.81;49.06
45763;BME280;37512;52.408;13.356;2023-12-28T05:27:12;100533.47;;;10.80;50.24
45763;BME280;37512;52.408;13.356;2023-12-28T05:31:14;100533.19;;;11.04;50.00
45763;BME280;37512;52.408;13.356;2023-12-28T05:35:16;100535.03;;;10.89;50.40
45763;BME280;37512;52.408;13.356;2023-12-28T05:39:18;100550.09;;;11.49;49.91
45763;BME280;37512;52.408;13.356;2023-12-28T05:43:19;100550.59;;;10.56;51.37
45763;BME280;37512;52.408;13.356;2023-12-28T05:47:21;100563.22;;;11.00;50.94
45763;BME280;37512;52.408;13.356;2023-12-28T05:51:22;100568.41;;;10.49;52.90
45763;BME280;37512;52.408;13.356;2023-12-28T05:55:24;100575.94;;;10.68;52.13
45763;BME280;37512;52.408;13.356;2023-12-28T05:59:26;100571.88;;;10.72;52.36
45763;BME280;37512;52.408;13.356;2023-12-28T06:03:28;100570.34;;;10.55;52.85
45763;BME280;37512;52.408;13.356;2023-12-28T06:07:30;100580.34;;;10.99;52.24
45763;BME280;37512;52.408;13.356;2023-12-28T06:11:32;100591.09;;;10.61;53.26
45763;BME280;37512;52.408;13.356;2023-12-28T06:15:34;100599.47;;;10.96;52.33
45763;BME280;37512;52.408;13.356;2023-12-28T06:19:35;100596.03;;;10.87;52.40
45763;BME280;37512;52.408;13.356;2023-12-28T06:23:37;100596.91;;;11.17;52.45
45763;BME280;37512;52.408;13.356;2023-12-28T06:27:39;100594.97;;;10.73;53.31
45763;BME280;37512;52.408;13.356;2023-12-28T06:31:40;100593.69;;;10.23;55.27
45763;BME280;37512;52.408;13.356;2023-12-28T06:35:42;100593.69;;;10.69;53.83
45763;BME280;37512;52.408;13.356;2023-12-28T06:39:44;100582.28;;;10.30;55.09
45763;BME280;37512;52.408;13.356;2023-12-28T06:43:45;100585.41;;;10.56;54.78
45763;BME280;37512;52.408;13.356;2023-12-28T06:47:47;100597.09;;;10.40;55.16
45763;BME280;37512;52.408;13.356;2023-12-28T06:51:49;100594.00;;;10.51;54.70
45763;BME280;37512;52.408;13.356;2023-12-28T06:55:50;100599.56;;;11.02;54.22
45763;BME280;37512;52.408;13.356;2023-12-28T06:59:52;100612.69;;;10.06;56.56
45763;BME280;37512;52.408;13.356;2023-12-28T07:03:53;100606.00;;;10.78;55.44
45763;BME280;37512;52.408;13.356;2023-12-28T07:07:55;100603.47;;;10.39;56.58
45763;BME280;37512;52.408;13.356;2023-12-28T07:11:57;100608.31;;;10.81;56.10
45763;BME280;37512;52.408;13.356;2023-12-28T07:15:59;100623.00;;;10.48;56.72
45763;BME280;37512;52.408;13.356;2023-12-28T07:20:02;100619.72;;;10.98;55.70
45763;BME280;37512;52.408;13.356;2023-12-28T07:24:05;100630.63;;;10.59;57.26
45763;BME280;37512;52.408;13.356;2023-12-28T07:28:07;100630.63;;;10.97;55.78
45763;BME280;37512;52.408;13.356;2023-12-28T07:32:08;100634.94;;;10.37;58.19
45763;BME280;37512;52.408;13.356;2023-12-28T07:36:11;100625.94;;;11.13;55.98
45763;BME280;37512;52.408;13.356;2023-12-28T07:40:13;100634.59;;;10.63;57.97
45763;BME280;37512;52.408;13.356;2023-12-28T07:44:14;100635.81;;;11.13;56.69
45763;BME280;37512;52.408;13.356;2023-12-28T07:48:18;100656.56;;;11.48;56.00
45763;BME280;37512;52.408;13.356;2023-12-28T07:52:20;100652.72;;;10.76;58.37
45763;BME280;37512;52.408;13.356;2023-12-28T07:56:22;100655.81;;;11.40;56.93
45763;BME280;37512;52.408;13.356;2023-12-28T08:00:24;100661.34;;;11.24;57.87
45763;BME280;37512;52.408;13.356;2023-12-28T08:04:26;100665.97;;;10.54;60.41
45763;BME280;37512;52.408;13.356;2023-12-28T08:08:28;100665.38;;;10.67;59.35
45763;BME280;37512;52.408;13.356;2023-12-28T08:12:30;100678.50;;;11.00;58.87
45763;BME280;37512;52.408;13.356;2023-12-28T08:16:32;100681.16;;;10.85;59.24
45763;BME280;37512;52.408;13.356;2023-12-28T08:20:34;100687.75;;;10.74;59.04
45763;BME280;37512;52.408;13.356;2023-12-28T08:24:36;100698.44;;;11.20;58.33
45763;BME280;37512;52.408;13.356;2023-12-28T08:28:39;100704.72;;;10.90;58.62
45763;BME280;37512;52.408;13.356;2023-12-28T08:32:42;100697.41;;;10.61;59.13
45763;BME280;37512;52.408;13.356;2023-12-28T08:36:44;100687.28;;;10.94;57.53
45763;BME280;37512;52.408;13.356;2023-12-28T08:40:46;100691.22;;;10.83;58.47
45763;BME280;37512;52.408;13.356;2023-12-28T08:44:48;100690.75;;;10.79;58.51
45763;BME280;37512;52.408;13.356;2023-12-28T08:48:51;100700.56;;;10.87;58.07
45763;BME280;37512;52.408;13.356;2023-12-28T08:52:53;100711.56;;;10.92;57.69
45763;BME280;37512;52.408;13.356;2023-12-28T08:56:56;100696.66;;;11.12;57.25
45763;BME280;37512;52.408;13.356;2023-12-28T09:01:00;100700.31;;;10.97;57.95
45763;BME280;37512;52.408;13.356;2023-12-28T09:05:02;100710.16;;;11.19;57.13
45763;BME280;37512;52.408;13.356;2023-12-28T09:09:04;100720.34;;;10.86;58.58
45763;BME280;37512;52.408;13.356;2023-12-28T09:13:07;100723.00;;;11.09;57.50
45763;BME280;37512;52.408;13.356;2023-12-28T09:17:09;100720.50;;;11.74;55.30
45763;BME280;37512;52.408;13.356;2023-12-28T09:21:11;100733.97;;;10.99;57.47
45763;BME280;37512;52.408;13.356;2023-12-28T09:25:13;100721.13;;;11.76;55.52
45763;BME280;37512;52.408;13.356;2023-12-28T09:29:15;100718.63;;;11.08;57.24
45763;BME280;37512;52.408;13.356;2023-12-28T09:33:17;100724.50;;;11.26;56.99
45763;BME280;37512;52.408;13.356;2023-12-28T09:37:19;100720.44;;;10.70;59.15
45763;BME280;37512;52.408;13.356;2023-12-28T09:41:22;100706.50;;;10.74;59.25
45763;BME280;37512;52.408;13.356;2023-12-28T09:45:27;100705.31;;;11.37;57.00
45763;BME280;37512;52.408;13.356;2023-12-28T09:49:30;100708.88;;;11.15;58.51
45763;BME280;37512;52.408;13.356;2023-12-28T09:53:32;100705.69;;;10.74;59.15
45763;BME280;37512;52.408;13.356;2023-12-28T09:57:35;100700.88;;;11.07;58.65
45763;BME280;37512;52.408;13.356;2023-12-28T10:01:38;100706.69;;;10.73;60.15
45763;BME280;37512;52.408;13.356;2023-12-28T10:05:41;100714.16;;;10.63;59.99
45763;BME280;37512;52.408;13.356;2023-12-28T10:09:44;100701.94;;;11.21;58.73
45763;BME280;37512;52.408;13.356;2023-12-28T10:13:47;100703.25;;;10.64;60.13
45763;BME280;37512;52.408;13.356;2023-12-28T10:17:54;100693.63;;;10.93;59.00
45763;BME280;37512;52.408;13.356;2023-12-28T10:21:56;100698.19;;;11.44;57.38
45763;BME280;37512;52.408;13.356;2023-12-28T10:26:01;100711.94;;;11.27;57.98
45763;BME280;37512;52.408;13.356;2023-12-28T10:30:04;100697.53;;;11.57;57.53
45763;BME280;37512;52.408;13.356;2023-12-28T10:34:08;100703.06;;;11.26;58.43
45763;BME280;37512;52.408;13.356;2023-12-28T10:38:13;100713.22;;;11.83;56.73
45763;BME280;37512;52.408;13.356;2023-12-28T10:42:42;100692.84;;;12.40;55.14
45763;BME280;37512;52.408;13.356;2023-12-28T10:46:50;100702.50;;;12.34;55.74
45763;BME280;37512;52.408;13.356;2023-12-28T10:50:57;100712.88;;;12.37;55.24
45763;BME280;37512;52.408;13.356;2023-12-28T11:00:13;100688.16;;;12.27;55.54
45763;BME280;37512;52.408;13.356;2023-12-28T11:03:52;100705.06;;;12.63;55.47
45763;BME280;37512;52.408;13.356;2023-12-28T11:08:00;100700.66;;;12.34;55.69
45763;BME280;37512;52.408;13.356;2023-12-28T11:12:07;100698.56;;;12.94;53.96
45763;BME280;37512;52.408;13.356;2023-12-28T11:16:11;100701.75;;;13.25;53.23
45763;BME280;37512;52.408;13.356;2023-12-28T11:20:14;100686.28;;;13.13;53.96
45763;BME280;37512;52.408;13.356;2023-12-28T11:24:16;100705.00;;;12.99;53.45
45763;BME280;37512;52.408;13.356;2023-12-28T11:28:19;100682.66;;;12.99;54.08
45763;BME280;37512;52.408;13.356;2023-12-28T11:32:22;100700.41;;;12.51;56.35
45763;BME280;37512;52.408;13.356;2023-12-28T11:36:33;100687.06;;;13.56;53.02
45763;BME280;37512;52.408;13.356;2023-12-28T11:40:40;100683.22;;;13.37;52.27
45763;BME280;37512;52.408;13.356;2023-12-28T11:44:45;100678.59;;;13.59;52.11
45763;BME280;37512;52.408;13.356;2023-12-28T11:48:47;100673.72;;;12.13;55.83
45763;BME280;37512;52.408;13.356;2023-12-28T11:52:49;100672.88;;;12.27;55.54
45763;BME280;37512;52.408;13.356;2023-12-28T11:56:52;100660.66;;;12.89;54.49
45763;BME280;37512;52.408;13.356;2023-12-28T12:00:54;100647.66;;;12.28;55.36
45763;BME280;37512;52.408;13.356;2023-12-28T12:04:56;100624.31;;;13.55;52.26
45763;BME280;37512;52.408;13.356;2023-12-28T12:09:03;100623.50;;;12.99;53.53
45763;BME280;37512;52.408;13.356;2023-12-28T12:13:05;100618.00;;;12.36;55.54
45763;BME280;37512;52.408;13.356;2023-12-28T12:17:08;100622.25;;;13.23;53.35
45763;BME280;37512;52.408;13.356;2023-12-28T12:21:10;100603.50;;;13.08;52.91
45763;BME280;37512;52.408;13.356;2023-12-28T12:25:13;100607.91;;;13.50;52.39
45763;BME280;37512;52.408;13.356;2023-12-28T12:29:16;100611.25;;;13.52;52.40
45763;BME280;37512;52.408;13.356;2023-12-28T12:33:20;100642.50;;;12.70;53.56
45763;BME280;37512;52.408;13.356;2023-12-28T12:37:23;100615.41;;;14.09;50.83
45763;BME280;37512;52.408;13.356;2023-12-28T12:41:26;100630.16;;;13.31;52.06
45763;BME280;37512;52.408;13.356;2023-12-28T12:45:28;100645.63;;;12.73;52.54
45763;BME280;37512;52.408;13.356;2023-12-28T12:49:30;100615.53;;;13.88;51.52
45763;BME280;37512;52.408;13.356;2023-12-28T12:53:34;100631.94;;;13.52;51.69
45763;BME280;37512;52.408;13.356;2023-12-28T12:57:36;100643.63;;;13.03;52.18
45763;BME280;37512;52.408;13.356;2023-12-28T13:01:39;100615.13;;;13.84;51.77
45763;BME280;37512;52.408;13.356;2023-12-28T13:05:41;100625.34;;;13.54;51.64
45763;BME280;37512;52.408;13.356;2023-12-28T13:09:46;100617.59;;;13.79;51.50
45763;BME280;37512;52.408;13.356;2023-12-28T13:13:48;100628.78;;;13.14;52.64
45763;BME280;37512;52.408;13.356;2023-12-28T13:17:50;100648.38;;;12.58;53.63
45763;BME280;37512;52.408;13.356;2023-12-28T13:21:52;100638.34;;;12.67;54.44
45763;BME280;37512;52.408;13.356;2023-12-28T13:25:54;100641.88;;;12.95;53.50
45763;BME280;37512;52.408;13.356;2023-12-28T13:29:56;100631.00;;;13.04;53.28
45763;BME280;37512;52.408;13.356;2023-12-28T13:33:58;100611.19;;;13.39;52.97
45763;BME280;37512;52.408;13.356;2023-12-28T13:38:00;100629.19;;;13.11;53.00
45763;BME280;37512;52.408;13.356;2023-12-28T13:42:06;100645.69;;;12.58;53.88
45763;BME280;37512;52.408;13.356;2023-12-28T13:46:12;100659.66;;;12.11;55.83
45763;BME280;37512;52.408;13.356;2023-12-28T13:50:14;100627.47;;;12.54;54.36
45763;BME280;37512;52.408;13.356;2023-12-28T13:54:17;100617.34;;;13.05;53.58
45763;BME280;37512;52.408;13.356;2023-12-28T13:58:21;100631.69;;;12.84;53.48
45763;BME280;37512;52.408;13.356;2023-12-28T14:02:23;100644.25;;;12.84;54.28
45763;BME280;37512;52.408;13.356;2023-12-28T14:06:26;100628.75;;;13.07;54.03
45763;BME280;37512;52.408;13.356;2023-12-28T14:10:28;100645.84;;;12.72;54.79
45763;BME280;37512;52.408;13.356;2023-12-28T14:14:30;100634.38;;;12.63;54.87
45763;BME280;37512;52.408;13.356;2023-12-28T14:18:33;100633.41;;;12.49;55.18
45763;BME280;37512;52.408;13.356;2023-12-28T14:22:38;100642.72;;;12.96;53.90
45763;BME280;37512;52.408;13.356;2023-12-28T14:26:42;100635.38;;;12.62;54.18
45763;BME280;37512;52.408;13.356;2023-12-28T14:30:45;100655.91;;;12.91;54.04
45763;BME280;37512;52.408;13.356;2023-12-28T14:34:49;100656.25;;;12.38;55.10
45763;BME280;37512;52.408;13.356;2023-12-28T14:38:52;100639.63;;;12.50;55.15
45763;BME280;37512;52.408;13.356;2023-12-28T14:42:54;100646.69;;;12.15;55.75
45763;BME280;37512;52.408;13.356;2023-12-28T14:46:59;100644.28;;;12.41;55.98
45763;BME280;37512;52.408;13.356;2023-12-28T14:51:01;100651.56;;;11.90;56.42
45763;BME280;37512;52.408;13.356;2023-12-28T14:55:05;100648.22;;;11.88;56.82
45763;BME280;37512;52.408;13.356;2023-12-28T14:59:07;100653.47;;;11.96;57.09
45763;BME280;37512;52.408;13.356;2023-12-28T15:03:10;100644.72;;;12.23;55.60
45763;BME280;37512;52.408;13.356;2023-12-28T15:07:13;100644.97;;;12.28;56.09
45763;BME280;37512;52.408;13.356;2023-12-28T15:11:16;100633.69;;;12.54;55.31
45763;BME280;37512;52.408;13.356;2023-12-28T15:15:20;100621.94;;;11.98;56.55
45763;BME280;37512;52.408;13.356;2023-12-28T15:19:24;100637.91;;;12.06;56.58
45763;BME280;37512;52.408;13.356;2023-12-28T15:23:31;100624.56;;;12.13;56.47
45763;BME280;37512;52.408;13.356;2023-12-28T15:27:34;100615.78;;;12.04;56.80
45763;BME280;37512;52.408;13.356;2023-12-28T15:31:37;100615.69;;;11.46;58.85
45763;BME280;37512;52.408;13.356;2023-12-28T15:35:41;100615.69;;;11.97;57.19
45763;BME280;37512;52.408;13.356;2023-12-28T15:39:43;100610.00;;;11.71;58.02
45763;BME280;37512;52.408;13.356;2023-12-28T15:43:46;100620.75;;;11.86;56.97
45763;BME280;37512;52.408;13.356;2023-12-28T15:47:52;100618.53;;;11.30;58.80
45763;BME280;37512;52.408;13.356;2023-12-28T15:51:54;100614.81;;;11.90;57.10
45763;BME280;37512;52.408;13.356;2023-12-28T15:55:57;100603.16;;;11.68;57.80
45763;BME280;37512;52.408;13.356;2023-12-28T16:00:16;100623.59;;;11.69;58.03
45763;BME280;37512;52.408;13.356;2023-12-28T16:04:18;100610.94;;;11.19;58.88
45763;BME280;37512;52.408;13.356;2023-12-28T16:08:21;100611.59;;;11.51;58.59
45763;BME280;37512;52.408;13.356;2023-12-28T16:17:25;100606.97;;;11.44;58.70
45763;BME280;37512;52.408;13.356;2023-12-28T16:21:27;100603.59;;;11.72;57.94
45763;BME280;37512;52.408;13.356;2023-12-28T16:25:32;100610.13;;;11.48;58.98
45763;BME280;37512;52.408;13.356;2023-12-28T16:29:35;100594.47;;;11.52;58.59
45763;BME280;37512;52.408;13.356;2023-12-28T16:33:37;100597.53;;;11.19;59.15
45763;BME280;37512;52.408;13.356;2023-12-28T16:37:39;100596.69;;;11.63;57.85
45763;BME280;37512;52.408;13.356;2023-12-28T16:41:40;100606.88;;;11.67;57.80
45763;BME280;37512;52.408;13.356;2023-12-28T16:45:42;100587.97;;;11.61;57.66
45763;BME280;37512;52.408;13.356;2023-12-28T16:49:44;100608.66;;;11.45;58.53
45763;BME280;37512;52.408;13.356;2023-12-28T16:53:46;100607.50;;;11.99;56.78
45763;BME280;37512;52.408;13.356;2023-12-28T16:57:47;100612.31;;;11.44;58.27
45763;BME280;37512;52.408;13.356;2023-12-28T17:01:49;100600.59;;;11.16;59.18
45763;BME280;37512;52.408;13.356;2023-12-28T17:05:51;100606.88;;;11.82;57.22
45763;BME280;37512;52.408;13.356;2023-12-28T17:09:54;100607.94;;;12.02;56.78
45763;BME280;37512;52.408;13.356;2023-12-28T17:13:56;100598.06;;;11.73;57.53
45763;BME280;37512;52.408;13.356;2023-12-28T17:17:58;100606.88;;;11.67;57.07
45763;BME280;37512;52.408;13.356;2023-12-28T17:22:03;100603.88;;;11.62;57.55
45763;BME280;37512;52.408;13.356;2023-12-28T17:26:24;100604.03;;;12.69;59.54
45763;BME280;37512;52.408;13.356;2023-12-28T17:30:26;100601.19;;;11.92;56.01
45763;BME280;37512;52.408;13.356;2023-12-28T17:34:28;100599.38;;;11.63;56.37
45763;BME280;37512;52.408;13.356;2023-12-28T17:38:32;100599.03;;;11.36;57.31
45763;BME280;37512;52.408;13.356;2023-12-28T17:42:35;100596.84;;;11.76;56.31
45763;BME280;37512;52.408;13.356;2023-12-28T17:46:49;100591.72;;;11.96;56.16
45763;BME280;37512;52.408;13.356;2023-12-28T17:50:51;100586.25;;;11.24;57.28
45763;BME280;37512;52.408;13.356;2023-12-28T17:54:56;100583.31;;;11.18;57.79
45763;BME280;37512;52.408;13.356;2023-12-28T17:58:58;100587.09;;;11.24;57.34
45763;BME280;37512;52.408;13.356;2023-12-28T18:03:00;100586.53;;;10.99;57.98
45763;BME280;37512;52.408;13.356;2023-12-28T18:07:02;100596.06;;;11.16;57.59
45763;BME280;37512;52.408;13.356;2023-12-28T18:11:04;100587.69;;;10.82;58.80
45763;BME280;37512;52.408;13.356;2023-12-28T18:15:05;100610.66;;;11.43;57.01
45763;BME280;37512;52.408;13.356;2023-12-28T18:19:07;100607.66;;;10.79;58.79
45763;BME280;37512;52.408;13.356;2023-12-28T18:23:10;100589.69;;;11.17;57.48
45763;BME280;37512;52.408;13.356;2023-12-28T18:27:11;100597.44;;;11.27;56.67
45763;BME280;37512;52.408;13.356;2023-12-28T18:31:13;100575.50;;;11.09;57.66
45763;BME280;37512;52.408;13.356;2023-12-28T18:35:15;100605.53;;;10.90;57.84
45763;BME280;37512;52.408;13.356;2023-12-28T18:39:17;100593.09;;;11.41;56.97
45763;BME280;37512;52.408;13.356;2023-12-28T18:43:20;100599.84;;;11.22;56.64
45763;BME280;37512;52.408;13.356;2023-12-28T18:47:22;100593.47;;;10.94;57.95
45763;BME280;37512;52.408;13.356;2023-12-28T18:51:24;100584.13;;;11.04;57.08
45763;BME280;37512;52.408;13.356;2023-12-28T18:55:26;100593.63;;;10.92;58.23
45763;BME280;37512;52.408;13.356;2023-12-28T18:59:27;100581.91;;;11.37;56.62
45763;BME280;37512;52.408;13.356;2023-12-28T19:03:29;100583.75;;;11.22;57.21
45763;BME280;37512;52.408;13.356;2023-12-28T19:07:46;100587.16;;;11.60;56.20
45763;BME280;37512;52.408;13.356;2023-12-28T19:11:49;100580.97;;;11.45;56.15
45763;BME280;37512;52.408;13.356;2023-12-28T19:15:50;100579.72;;;11.62;55.78
45763;BME280;37512;52.408;13.356;2023-12-28T19:19:52;100569.31;;;11.23;56.83
45763;BME280;37512;52.408;13.356;2023-12-28T19:23:54;100570.81;;;11.26;57.13
45763;BME280;37512;52.408;13.356;2023-12-28T19:27:55;100564.78;;;11.38;56.65
45763;BME280;37512;52.408;13.356;2023-12-28T19:31:57;100578.84;;;10.81;58.14
45763;BME280;37512;52.408;13.356;2023-12-28T19:36:01;100572.00;;;11.23;56.80
45763;BME280;37512;52.408;13.356;2023-12-28T19:40:03;100564.03;;;11.44;56.75
45763;BME280;37512;52.408;13.356;2023-12-28T19:44:04;100558.03;;;10.83;58.25
45763;BME280;37512;52.408;13.356;2023-12-28T19:48:06;100546.84;;;10.65;58.41
45763;BME280;37512;52.408;13.356;2023-12-28T19:52:09;100545.84;;;11.25;57.86
45763;BME280;37512;52.408;13.356;2023-12-28T19:56:10;100560.00;;;11.19;57.23
45763;BME280;37512;52.408;13.356;2023-12-28T20:00:12;100556.63;;;10.73;58.32
45763;BME280;37512;52.408;13.356;2023-12-28T20:04:14;100553.50;;;10.84;58.24
45763;BME280;37512;52.408;13.356;2023-12-28T20:08:16;100557.88;;;11.00;57.84
45763;BME280;37512;52.408;13.356;2023-12-28T20:12:18;100559.53;;;11.30;56.93
45763;BME280;37512;52.408;13.356;2023-12-28T20:16:19;100558.94;;;10.76;58.32
45763;BME280;37512;52.408;13.356;2023-12-28T20:20:21;100562.78;;;10.58;58.29
45763;BME280;37512;52.408;13.356;2023-12-28T20:24:23;100564.44;;;10.97;58.05
45763;BME280;37512;52.408;13.356;2023-12-28T20:28:25;100561.84;;;10.51;59.29
45763;BME280;37512;52.408;13.356;2023-12-28T20:32:26;100556.69;;;10.50;59.72
45763;BME280;37512;52.408;13.356;2023-12-28T20:36:28;100564.63;;;10.58;59.22
45763;BME280;37512;52.408;13.356;2023-12-28T20:40:30;100556.97;;;10.55;59.38
45763;BME280;37512;52.408;13.356;2023-12-28T20:44:31;100557.91;;;10.16;60.46
45763;BME280;37512;52.408;13.356;2023-12-28T20:48:33;100553.91;;;10.58;59.36
45763;BME280;37512;52.408;13.356;2023-12-28T20:52:35;100552.84;;;9.98;61.84
45763;BME280;37512;52.408;13.356;2023-12-28T20:56:37;100544.72;;;9.61;62.12
45763;BME280;37512;52.408;13.356;2023-12-28T21:00:38;100548.44;;;9.83;61.64
45763;BME280;37512;52.408;13.356;2023-12-28T21:04:40;100541.50;;;9.96;61.31